createdAt,value
2023-05-09T00:00:11.178Z,101233.59
2023-05-09T00:05:13.114Z,101226.88
2023-05-09T00:10:14.993Z,101216.59
2023-05-09T00:15:16.582Z,101218.13
2023-05-09T00:20:18.103Z,101222.84
2023-05-09T00:25:19.542Z,101213.78
2023-05-09T00:30:21.031Z,101218.34
2023-05-09T00:35:22.727Z,101221.75
2023-05-09T00:40:24.195Z,101212.91
2023-05-09T00:45:26.300Z,101208.63
2023-05-09T00:50:27.744Z,101206.94
2023-05-09T00:55:29.498Z,101198.59
2023-05-09T01:00:31.336Z,101201.41
2023-05-09T01:05:43.753Z,101192.91
2023-05-09T01:11:09.410Z,101185.28
2023-05-09T01:16:19.902Z,101184.19
2023-05-09T01:21:26.878Z,101172.63
2023-05-09T01:27:04.396Z,101171.19
2023-05-09T01:32:09.802Z,101163.66
2023-05-09T01:37:14.973Z,101162.94
2023-05-09T01:42:18.976Z,101157.72
2023-05-09T01:47:21.095Z,101163.88
2023-05-09T01:52:24.456Z,101169.06
2023-05-09T01:57:29.130Z,101161.91
2023-05-09T02:02:30.971Z,101164.84
2023-05-09T02:07:33.317Z,101163.63
2023-05-09T02:12:34.784Z,101152.09
2023-05-09T02:17:36.176Z,101150.25
2023-05-09T02:22:41.198Z,101145.38
2023-05-09T02:27:46.035Z,101146.38
2023-05-09T02:32:50.689Z,101153.25
2023-05-09T02:37:55.256Z,101143.06
2023-05-09T02:42:57.213Z,101139.78
2023-05-09T02:47:59.004Z,101147.03
2023-05-09T02:53:00.519Z,101149.63
2023-05-09T02:58:11.934Z,101146.97
2023-05-09T03:03:14.877Z,101145.38
2023-05-09T03:08:16.516Z,101144.13
2023-05-09T03:13:18.969Z,101138.31
2023-05-09T03:18:20.576Z,101138.69
2023-05-09T03:23:21.983Z,101129.81
2023-05-09T03:28:23.512Z,101125.75
2023-05-09T03:33:25.028Z,101125.47
2023-05-09T03:38:27.629Z,101113.28
2023-05-09T03:43:29.127Z,101113.56
2023-05-09T03:48:31.411Z,101119.13
2023-05-09T03:53:32.936Z,101116.97
2023-05-09T03:58:34.460Z,101123.59
2023-05-09T04:03:37.629Z,101113.31
2023-05-09T04:08:39.770Z,101119.47
2023-05-09T04:13:42.203Z,101121.41
2023-05-09T04:19:03.308Z,101125.56
2023-05-09T04:24:05.017Z,101115.91
2023-05-09T04:29:16.954Z,101116.66
2023-05-09T04:34:24.801Z,101107.53
2023-05-09T04:39:27.034Z,101112.59
2023-05-09T04:44:37.497Z,101108.06
2023-05-09T04:49:39.052Z,101107.56
2023-05-09T04:54:41.007Z,101098.16
2023-05-09T04:59:42.677Z,101105.03
2023-05-09T05:04:46.880Z,101101.91
2023-05-09T05:09:48.949Z,101101.59
2023-05-09T05:14:50.659Z,101095.03
2023-05-09T05:19:55.217Z,101085.13
2023-05-09T05:24:56.978Z,101081.00
2023-05-09T05:29:59.760Z,101079.19
2023-05-09T05:35:02.563Z,101076.31
2023-05-09T05:40:05.977Z,101081.53
2023-05-09T05:45:09.023Z,101076.16
2023-05-09T05:50:14.057Z,101067.09
2023-05-09T05:55:15.854Z,101072.78
2023-05-09T06:00:17.816Z,101066.41
2023-05-09T06:05:23.147Z,101053.97
2023-05-09T06:10:25.793Z,101058.16
2023-05-09T06:15:27.392Z,101046.16
2023-05-09T06:20:29.784Z,101044.69
2023-05-09T06:25:31.232Z,101047.06
2023-05-09T06:30:32.670Z,101037.59
2023-05-09T06:35:34.093Z,101031.16
2023-05-09T06:40:35.624Z,101023.09
2023-05-09T06:45:37.111Z,101016.44
2023-05-09T06:50:38.644Z,101014.34
2023-05-09T06:55:40.210Z,100995.19
2023-05-09T07:00:41.649Z,100991.78
2023-05-09T07:05:43.185Z,100991.78
2023-05-09T07:10:44.582Z,100980.63
2023-05-09T07:15:46.313Z,100980.06
2023-05-09T07:20:47.882Z,100982.13
2023-05-09T07:25:49.484Z,100981.84
2023-05-09T07:30:50.955Z,100965.53
2023-05-09T07:35:53.037Z,100959.13
2023-05-09T07:40:54.447Z,100952.22
2023-05-09T07:45:55.932Z,100937.72
2023-05-09T07:50:58.204Z,100924.22
2023-05-09T07:55:59.681Z,100927.50
2023-05-09T08:01:01.215Z,100925.50
2023-05-09T08:06:02.708Z,100927.22
2023-05-09T08:11:05.484Z,100919.56
2023-05-09T08:16:07.502Z,100920.25
2023-05-09T08:21:09.174Z,100918.19
2023-05-09T08:26:10.593Z,100902.53
2023-05-09T08:31:12.038Z,100895.09
2023-05-09T08:36:13.456Z,100890.25
2023-05-09T08:41:15.328Z,100881.91
2023-05-09T08:46:18.288Z,100874.56
2023-05-09T08:51:20.198Z,100868.84
2023-05-09T08:56:22.266Z,100860.22
2023-05-09T09:01:26.665Z,100853.75
2023-05-09T09:06:30.082Z,100865.72
2023-05-09T09:11:33.037Z,100861.47
2023-05-09T09:16:37.049Z,100845.69
2023-05-09T09:21:43.099Z,100858.81
2023-05-09T09:26:50.348Z,100849.75
2023-05-09T09:31:57.857Z,100845.06
2023-05-09T09:36:59.459Z,100843.69
2023-05-09T09:42:11.785Z,100839.03
2023-05-09T09:47:13.199Z,100836.72
2023-05-09T09:52:23.555Z,100828.00
2023-05-09T09:57:39.706Z,100821.19
2023-05-09T10:02:54.346Z,100825.22
2023-05-09T10:08:01.013Z,100827.94
2023-05-09T10:13:06.351Z,100821.00
2023-05-09T10:18:11.136Z,100800.66
2023-05-09T10:23:14.747Z,100805.78
2023-05-09T10:28:22.457Z,100791.94
2023-05-09T10:33:34.325Z,100800.31
2023-05-09T10:38:37.235Z,100787.63
2023-05-09T10:43:42.807Z,100778.16
2023-05-09T10:48:48.082Z,100757.72
2023-05-09T10:53:50.869Z,100747.88
2023-05-09T10:58:52.513Z,100738.66
2023-05-09T11:03:58.895Z,100732.56
2023-05-09T11:09:32.581Z,100719.91
2023-05-09T11:14:44.782Z,100708.03
2023-05-09T11:19:49.810Z,100698.84
2023-05-09T11:25:04.637Z,100705.03
2023-05-09T11:30:34.773Z,100696.25
2023-05-09T11:35:37.752Z,100684.03
2023-05-09T11:40:39.670Z,100677.25
2023-05-09T11:45:41.688Z,100665.72
2023-05-09T11:50:47.856Z,100658.31
2023-05-09T11:55:50.583Z,100652.47
2023-05-09T12:00:55.015Z,100640.00
2023-05-09T12:05:56.962Z,100636.69
2023-05-09T12:11:08.384Z,100627.06
2023-05-09T12:16:09.842Z,100616.28
2023-05-09T12:21:12.123Z,100611.22
2023-05-09T12:26:14.467Z,100603.53
2023-05-09T12:31:16.944Z,100597.91
2023-05-09T12:36:18.727Z,100594.66
2023-05-09T12:41:34.949Z,100596.78
2023-05-09T12:46:41.182Z,100584.28
2023-05-09T12:51:49.291Z,100581.56
2023-05-09T12:56:58.460Z,100571.81
2023-05-09T13:02:01.647Z,100562.63
2023-05-09T13:07:10.165Z,100537.38
2023-05-09T13:12:11.610Z,100539.72
2023-05-09T13:17:13.150Z,100531.50
2023-05-09T13:22:16.511Z,100533.19
2023-05-09T13:27:17.952Z,100510.19
2023-05-09T13:32:19.438Z,100497.31
2023-05-09T13:37:21.605Z,100480.94
2023-05-09T13:42:23.022Z,100474.84
2023-05-09T13:47:24.501Z,100467.19
2023-05-09T13:52:26.072Z,100466.75
2023-05-09T13:57:27.938Z,100460.06
2023-05-09T14:02:29.457Z,100444.19
2023-05-09T14:07:30.988Z,100441.28
2023-05-09T14:12:32.629Z,100438.81
2023-05-09T14:17:34.093Z,100433.41
2023-05-09T14:22:35.583Z,100427.59
2023-05-09T14:27:37.232Z,100423.03
2023-05-09T14:32:38.756Z,100413.94
2023-05-09T14:37:41.368Z,100402.34
2023-05-09T14:42:44.107Z,100389.31
2023-05-09T14:47:45.680Z,100390.09
2023-05-09T14:52:48.889Z,100382.13
2023-05-09T14:57:50.313Z,100377.06
2023-05-09T15:02:51.772Z,100368.75
2023-05-09T15:07:53.603Z,100372.22
2023-05-09T15:12:55.959Z,100365.16
2023-05-09T15:17:57.703Z,100353.75
2023-05-09T15:23:12.483Z,100353.25
2023-05-09T15:28:14.167Z,100343.41
2023-05-09T15:33:15.660Z,100344.75
2023-05-09T15:38:17.518Z,100331.22
2023-05-09T15:43:19.079Z,100334.13
2023-05-09T15:48:21.600Z,100338.44
2023-05-09T15:53:23.360Z,100321.09
2023-05-09T15:58:25.036Z,100314.22
2023-05-09T16:03:27.542Z,100314.75
2023-05-09T16:08:29.209Z,100319.59
2023-05-09T16:13:31.527Z,100318.84
2023-05-09T16:18:33.888Z,100311.94
2023-05-09T16:23:35.368Z,100302.66
2023-05-09T16:28:36.873Z,100298.53
2023-05-09T16:33:38.508Z,100296.53
2023-05-09T16:38:39.984Z,100289.38
2023-05-09T16:43:41.519Z,100287.81
2023-05-09T16:54:15.769Z,100266.47
2023-05-09T16:59:20.133Z,100262.88
2023-05-09T17:04:21.654Z,100256.56
2023-05-09T17:09:23.130Z,100256.41
2023-05-09T17:14:24.657Z,100247.88
2023-05-09T17:19:26.414Z,100242.34
2023-05-09T17:24:27.832Z,100241.03
2023-05-09T17:29:30.556Z,100247.13
2023-05-09T17:34:32.284Z,100240.13
2023-05-09T17:39:33.730Z,100226.72
2023-05-09T17:44:35.152Z,100234.38
2023-05-09T17:49:36.621Z,100227.97
2023-05-09T17:54:38.058Z,100216.13
2023-05-09T17:59:41.325Z,100221.75
2023-05-09T18:04:44.565Z,100211.66
2023-05-09T18:09:46.191Z,100215.06
2023-05-09T18:14:47.752Z,100202.22
2023-05-09T18:19:49.295Z,100202.22
2023-05-09T18:24:52.287Z,100203.72
2023-05-09T18:29:53.698Z,100197.03
2023-05-09T18:34:55.169Z,100201.09
2023-05-09T18:39:57.096Z,100207.84
2023-05-09T18:45:00.726Z,100201.63
2023-05-09T18:50:03.966Z,100198.66
2023-05-09T18:55:06.007Z,100203.81
2023-05-09T19:00:08.084Z,100194.03
2023-05-09T19:05:09.517Z,100187.19
2023-05-09T19:10:11.125Z,100191.38
2023-05-09T19:15:12.632Z,100183.31
2023-05-09T19:20:14.548Z,100184.06
2023-05-09T19:25:16.278Z,100186.78
2023-05-09T19:30:17.945Z,100188.81
2023-05-09T19:35:20.179Z,100185.19
2023-05-09T19:40:21.898Z,100177.13
2023-05-09T19:45:23.321Z,100177.03
2023-05-09T19:50:24.740Z,100178.44
2023-05-09T19:55:26.292Z,100174.56
2023-05-09T20:00:27.821Z,100180.25
2023-05-09T20:05:29.258Z,100175.38
2023-05-09T20:10:30.845Z,100166.28
2023-05-09T20:15:32.308Z,100166.00
2023-05-09T20:20:34.144Z,100159.72
2023-05-09T20:25:35.580Z,100151.38
2023-05-09T20:30:36.987Z,100142.31
2023-05-09T20:35:39.807Z,100135.56
2023-05-09T20:40:42.972Z,100133.50
2023-05-09T20:45:44.472Z,100124.09
2023-05-09T20:50:46.336Z,100125.09
2023-05-09T20:55:50.222Z,100122.72
2023-05-09T21:00:52.049Z,100112.25
2023-05-09T21:05:53.700Z,100120.03
2023-05-09T21:10:55.124Z,100102.44
2023-05-09T21:15:56.544Z,100102.63
2023-05-09T21:21:01.651Z,100089.06
2023-05-09T21:26:03.179Z,100085.78
2023-05-09T21:31:04.857Z,100085.97
2023-05-09T21:36:07.556Z,100080.41
2023-05-09T21:41:10.001Z,100086.84
2023-05-09T21:46:11.539Z,100080.41
2023-05-09T21:51:13.025Z,100087.59
2023-05-09T21:56:14.435Z,100076.69
2023-05-09T22:01:18.435Z,100075.03
2023-05-09T22:06:19.915Z,100063.97
2023-05-09T22:11:21.375Z,100061.81
2023-05-09T22:16:22.958Z,100060.59
2023-05-09T22:21:24.408Z,100061.44
2023-05-09T22:26:26.168Z,100057.69
2023-05-09T22:31:27.621Z,100054.66
2023-05-09T22:36:29.140Z,100055.25
2023-05-09T22:41:30.564Z,100049.88
2023-05-09T22:46:32.304Z,100045.59
2023-05-09T22:51:33.923Z,100044.97
2023-05-09T22:56:35.359Z,100027.19
2023-05-09T23:01:36.817Z,100034.69
2023-05-09T23:06:38.283Z,100021.72
2023-05-09T23:11:39.725Z,100018.75
2023-05-09T23:16:41.153Z,100018.31
2023-05-09T23:21:42.596Z,100016.81
2023-05-09T23:26:44.298Z,100005.94
2023-05-09T23:31:45.917Z,100002.13
2023-05-09T23:36:47.409Z,100008.78
2023-05-09T23:41:48.828Z,99997.03
2023-05-09T23:46:50.390Z,99999.38
2023-05-09T23:51:51.852Z,99996.88
2023-05-09T23:56:53.290Z,100003.13
